sensor_id;sensor_type;location;lat;lon;timestamp;temperature;humidity
16513;DHT22;8369;48.030;11.598;2023-04-15T00:01:30;5.80;99.90
16513;DHT22;8369;48.030;11.598;2023-04-15T00:03:58;5.80;99.90
16513;DHT22;8369;48.030;11.598;2023-04-15T00:06:24;5.80;99.90
16513;DHT22;8369;48.030;11.598;2023-04-15T00:08:50;5.80;99.90
16513;DHT22;8369;48.030;11.598;2023-04-15T00:11:16;5.80;99.90
16513;DHT22;8369;48.030;11.598;2023-04-15T00:13:42;5.80;99.90
16513;DHT22;8369;48.030;11.598;2023-04-15T00:16:09;5.80;99.90
16513;DHT22;8369;48.030;11.598;2023-04-15T00:18:35;5.80;99.90
16513;DHT22;8369;48.030;11.598;2023-04-15T00:21:02;5.80;99.90
16513;DHT22;8369;48.030;11.598;2023-04-15T00:23:27;5.80;99.90
16513;DHT22;8369;48.030;11.598;2023-04-15T00:25:53;5.70;99.90
16513;DHT22;8369;48.030;11.598;2023-04-15T00:28:19;5.70;99.90
16513;DHT22;8369;48.030;11.598;2023-04-15T00:30:45;5.70;99.90
16513;DHT22;8369;48.030;11.598;2023-04-15T00:33:12;5.70;99.90
16513;DHT22;8369;48.030;11.598;2023-04-15T00:35:38;5.70;99.90
16513;DHT22;8369;48.030;11.598;2023-04-15T00:38:05;5.70;99.90
16513;DHT22;8369;48.030;11.598;2023-04-15T00:40:32;5.70;99.90
16513;DHT22;8369;48.030;11.598;2023-04-15T00:42:58;5.70;99.90
16513;DHT22;8369;48.030;11.598;2023-04-15T00:45:24;5.70;99.90
16513;DHT22;8369;48.030;11.598;2023-04-15T00:47:50;5.70;99.90
16513;DHT22;8369;48.030;11.598;2023-04-15T00:50:15;5.70;99.90
16513;DHT22;8369;48.030;11.598;2023-04-15T00:52:41;5.70;99.90
16513;DHT22;8369;48.030;11.598;2023-04-15T00:55:07;5.70;99.90
16513;DHT22;8369;48.030;11.598;2023-04-15T00:57:34;5.70;99.90
16513;DHT22;8369;48.030;11.598;2023-04-15T01:00:00;5.70;99.90
16513;DHT22;8369;48.030;11.598;2023-04-15T01:02:26;5.70;99.90
16513;DHT22;8369;48.030;11.598;2023-04-15T01:04:53;5.70;99.90
16513;DHT22;8369;48.030;11.598;2023-04-15T01:07:19;5.70;99.90
16513;DHT22;8369;48.030;11.598;2023-04-15T01:09:44;5.70;99.90
16513;DHT22;8369;48.030;11.598;2023-04-15T01:12:13;5.70;99.90
16513;DHT22;8369;48.030;11.598;2023-04-15T01:14:41;5.70;99.90
16513;DHT22;8369;48.030;11.598;2023-04-15T01:17:07;5.60;99.90
16513;DHT22;8369;48.030;11.598;2023-04-15T01:19:33;5.60;99.90
16513;DHT22;8369;48.030;11.598;2023-04-15T01:21:59;5.60;99.90
16513;DHT22;8369;48.030;11.598;2023-04-15T01:24:25;5.60;99.90
16513;DHT22;8369;48.030;11.598;2023-04-15T01:26:52;5.60;99.90
16513;DHT22;8369;48.030;11.598;2023-04-15T01:29:18;5.60;99.90
16513;DHT22;8369;48.030;11.598;2023-04-15T01:31:54;5.60;99.90
16513;DHT22;8369;48.030;11.598;2023-04-15T01:34:20;5.60;99.90
16513;DHT22;8369;48.030;11.598;2023-04-15T01:36:47;5.60;99.90
16513;DHT22;8369;48.030;11.598;2023-04-15T01:39:13;5.60;99.90
16513;DHT22;8369;48.030;11.598;2023-04-15T01:41:39;5.60;99.90
16513;DHT22;8369;48.030;11.598;2023-04-15T01:44:07;5.60;99.90
16513;DHT22;8369;48.030;11.598;2023-04-15T01:46:34;5.60;99.90
16513;DHT22;8369;48.030;11.598;2023-04-15T01:49:00;5.60;99.90
16513;DHT22;8369;48.030;11.598;2023-04-15T01:51:26;5.60;99.90
16513;DHT22;8369;48.030;11.598;2023-04-15T01:53:52;5.60;99.90
16513;DHT22;8369;48.030;11.598;2023-04-15T01:56:18;5.60;99.90
16513;DHT22;8369;48.030;11.598;2023-04-15T01:58:44;5.60;99.90
16513;DHT22;8369;48.030;11.598;2023-04-15T02:01:10;5.60;99.90
16513;DHT22;8369;48.030;11.598;2023-04-15T02:03:36;5.60;99.90
16513;DHT22;8369;48.030;11.598;2023-04-15T02:06:03;5.60;99.90
16513;DHT22;8369;48.030;11.598;2023-04-15T02:08:29;5.60;99.90
16513;DHT22;8369;48.030;11.598;2023-04-15T02:10:55;5.60;99.90
16513;DHT22;8369;48.030;11.598;2023-04-15T02:13:21;5.60;99.90
16513;DHT22;8369;48.030;11.598;2023-04-15T02:15:48;5.60;99.90
16513;DHT22;8369;48.030;11.598;2023-04-15T02:18:15;5.60;99.90
16513;DHT22;8369;48.030;11.598;2023-04-15T02:20:41;5.60;99.90
16513;DHT22;8369;48.030;11.598;2023-04-15T02:23:08;5.60;99.90
16513;DHT22;8369;48.030;11.598;2023-04-15T02:25:35;5.60;99.90
16513;DHT22;8369;48.030;11.598;2023-04-15T02:28:02;5.60;99.90
16513;DHT22;8369;48.030;11.598;2023-04-15T02:30:27;5.60;99.90
16513;DHT22;8369;48.030;11.598;2023-04-15T02:32:53;5.60;99.90
16513;DHT22;8369;48.030;11.598;2023-04-15T02:35:20;5.60;99.90
16513;DHT22;8369;48.030;11.598;2023-04-15T02:37:46;5.60;99.90
16513;DHT22;8369;48.030;11.598;2023-04-15T02:40:12;5.60;99.90
16513;DHT22;8369;48.030;11.598;2023-04-15T02:42:39;5.60;99.90
16513;DHT22;8369;48.030;11.598;2023-04-15T02:45:05;5.60;99.90
16513;DHT22;8369;48.030;11.598;2023-04-15T02:47:35;5.60;99.90
16513;DHT22;8369;48.030;11.598;2023-04-15T02:50:02;5.60;99.90
16513;DHT22;8369;48.030;11.598;2023-04-15T02:52:28;5.60;99.90
16513;DHT22;8369;48.030;11.598;2023-04-15T02:54:54;5.60;99.90
16513;DHT22;8369;48.030;11.598;2023-04-15T02:57:25;5.60;99.90
16513;DHT22;8369;48.030;11.598;2023-04-15T02:59:52;5.60;99.90
16513;DHT22;8369;48.030;11.598;2023-04-15T03:02:18;5.60;99.90
16513;DHT22;8369;48.030;11.598;2023-04-15T03:04:43;5.60;99.90
16513;DHT22;8369;48.030;11.598;2023-04-15T03:07:09;5.60;99.90
16513;DHT22;8369;48.030;11.598;2023-04-15T03:09:35;5.60;99.90
16513;DHT22;8369;48.030;11.598;2023-04-15T03:12:01;5.60;99.90
16513;DHT22;8369;48.030;11.598;2023-04-15T03:14:27;5.60;99.90
16513;DHT22;8369;48.030;11.598;2023-04-15T03:16:53;5.60;99.90
16513;DHT22;8369;48.030;11.598;2023-04-15T03:19:19;5.60;99.90
16513;DHT22;8369;48.030;11.598;2023-04-15T03:21:45;5.60;99.90
16513;DHT22;8369;48.030;11.598;2023-04-15T03:24:10;5.60;99.90
16513;DHT22;8369;48.030;11.598;2023-04-15T03:26:36;5.60;99.90
16513;DHT22;8369;48.030;11.598;2023-04-15T03:29:02;5.60;99.90
16513;DHT22;8369;48.030;11.598;2023-04-15T03:31:28;5.60;99.90
16513;DHT22;8369;48.030;11.598;2023-04-15T03:33:53;5.60;99.90
16513;DHT22;8369;48.030;11.598;2023-04-15T03:36:19;5.60;99.90
16513;DHT22;8369;48.030;11.598;2023-04-15T03:38:45;5.60;99.90
16513;DHT22;8369;48.030;11.598;2023-04-15T03:41:11;5.60;99.90
16513;DHT22;8369;48.030;11.598;2023-04-15T03:43:37;5.60;99.90
16513;DHT22;8369;48.030;11.598;2023-04-15T03:46:03;5.60;99.90
16513;DHT22;8369;48.030;11.598;2023-04-15T03:48:29;5.60;99.90
16513;DHT22;8369;48.030;11.598;2023-04-15T03:50:55;5.60;99.90
16513;DHT22;8369;48.030;11.598;2023-04-15T03:53:21;5.60;99.90
16513;DHT22;8369;48.030;11.598;2023-04-15T03:55:47;5.60;99.90
16513;DHT22;8369;48.030;11.598;2023-04-15T03:58:13;5.60;99.90
16513;DHT22;8369;48.030;11.598;2023-04-15T04:00:39;5.60;99.90
16513;DHT22;8369;48.030;11.598;2023-04-15T04:03:05;5.60;99.90
16513;DHT22;8369;48.030;11.598;2023-04-15T04:05:32;5.60;99.90
16513;DHT22;8369;48.030;11.598;2023-04-15T04:08:01;5.60;99.90
16513;DHT22;8369;48.030;11.598;2023-04-15T04:10:27;5.60;99.90
16513;DHT22;8369;48.030;11.598;2023-04-15T04:12:53;5.60;99.90
16513;DHT22;8369;48.030;11.598;2023-04-15T04:15:19;5.60;99.90
16513;DHT22;8369;48.030;11.598;2023-04-15T04:17:45;5.50;99.90
16513;DHT22;8369;48.030;11.598;2023-04-15T04:20:11;5.50;99.90
16513;DHT22;8369;48.030;11.598;2023-04-15T04:22:40;5.60;99.90
16513;DHT22;8369;48.030;11.598;2023-04-15T04:25:07;5.50;99.90
16513;DHT22;8369;48.030;11.598;2023-04-15T04:27:33;5.60;99.90
16513;DHT22;8369;48.030;11.598;2023-04-15T04:30:00;5.60;99.90
16513;DHT22;8369;48.030;11.598;2023-04-15T04:32:26;5.60;99.90
16513;DHT22;8369;48.030;11.598;2023-04-15T04:34:52;5.60;99.90
16513;DHT22;8369;48.030;11.598;2023-04-15T04:37:17;5.60;99.90
16513;DHT22;8369;48.030;11.598;2023-04-15T04:39:43;5.60;99.90
16513;DHT22;8369;48.030;11.598;2023-04-15T04:42:09;5.60;99.90
16513;DHT22;8369;48.030;11.598;2023-04-15T04:44:36;5.60;99.90
16513;DHT22;8369;48.030;11.598;2023-04-15T04:47:02;5.60;99.90
16513;DHT22;8369;48.030;11.598;2023-04-15T04:49:28;5.60;99.90
16513;DHT22;8369;48.030;11.598;2023-04-15T04:51:54;5.60;99.90
16513;DHT22;8369;48.030;11.598;2023-04-15T04:54:20;5.60;99.90
16513;DHT22;8369;48.030;11.598;2023-04-15T04:56:46;5.60;99.90
16513;DHT22;8369;48.030;11.598;2023-04-15T04:59:12;5.60;99.90
16513;DHT22;8369;48.030;11.598;2023-04-15T05:01:38;5.60;99.90
16513;DHT22;8369;48.030;11.598;2023-04-15T05:04:05;5.60;99.90
16513;DHT22;8369;48.030;11.598;2023-04-15T05:06:32;5.60;99.90
16513;DHT22;8369;48.030;11.598;2023-04-15T05:08:58;5.60;99.90
16513;DHT22;8369;48.030;11.598;2023-04-15T05:11:24;5.60;99.90
16513;DHT22;8369;48.030;11.598;2023-04-15T05:13:50;5.60;99.90
16513;DHT22;8369;48.030;11.598;2023-04-15T05:16:17;5.60;99.90
16513;DHT22;8369;48.030;11.598;2023-04-15T05:18:44;5.70;99.90
16513;DHT22;8369;48.030;11.598;2023-04-15T05:21:10;5.80;99.90
16513;DHT22;8369;48.030;11.598;2023-04-15T05:23:36;5.70;99.90
16513;DHT22;8369;48.030;11.598;2023-04-15T05:26:02;5.70;99.90
16513;DHT22;8369;48.030;11.598;2023-04-15T05:28:28;5.70;99.90
16513;DHT22;8369;48.030;11.598;2023-04-15T05:30:54;5.80;99.90
16513;DHT22;8369;48.030;11.598;2023-04-15T05:33:20;5.80;99.90
16513;DHT22;8369;48.030;11.598;2023-04-15T05:35:46;5.80;99.90
16513;DHT22;8369;48.030;11.598;2023-04-15T05:38:12;5.80;99.90
16513;DHT22;8369;48.030;11.598;2023-04-15T05:40:38;5.80;99.90
16513;DHT22;8369;48.030;11.598;2023-04-15T05:43:04;5.80;99.90
16513;DHT22;8369;48.030;11.598;2023-04-15T05:45:30;5.80;99.90
16513;DHT22;8369;48.030;11.598;2023-04-15T05:47:56;5.90;99.90
16513;DHT22;8369;48.030;11.598;2023-04-15T05:50:22;5.90;99.90
16513;DHT22;8369;48.030;11.598;2023-04-15T05:52:47;5.90;99.90
16513;DHT22;8369;48.030;11.598;2023-04-15T05:55:13;5.90;99.90
16513;DHT22;8369;48.030;11.598;2023-04-15T05:57:39;5.90;99.90
16513;DHT22;8369;48.030;11.598;2023-04-15T06:00:05;5.90;99.90
16513;DHT22;8369;48.030;11.598;2023-04-15T06:02:31;5.90;99.90
16513;DHT22;8369;48.030;11.598;2023-04-15T06:04:57;5.90;99.90
16513;DHT22;8369;48.030;11.598;2023-04-15T06:07:23;6.00;99.90
16513;DHT22;8369;48.030;11.598;2023-04-15T06:09:49;6.00;99.90
16513;DHT22;8369;48.030;11.598;2023-04-15T06:12:15;6.00;99.90
16513;DHT22;8369;48.030;11.598;2023-04-15T06:14:41;6.00;99.90
16513;DHT22;8369;48.030;11.598;2023-04-15T06:17:08;6.00;99.90
16513;DHT22;8369;48.030;11.598;2023-04-15T06:19:34;6.00;99.90
16513;DHT22;8369;48.030;11.598;2023-04-15T06:22:01;6.00;99.90
16513;DHT22;8369;48.030;11.598;2023-04-15T06:24:27;6.00;99.90
16513;DHT22;8369;48.030;11.598;2023-04-15T06:26:54;6.00;99.90
16513;DHT22;8369;48.030;11.598;2023-04-15T06:29:20;6.10;99.90
16513;DHT22;8369;48.030;11.598;2023-04-15T06:31:47;6.10;99.90
16513;DHT22;8369;48.030;11.598;2023-04-15T06:34:13;6.10;99.90
16513;DHT22;8369;48.030;11.598;2023-04-15T06:36:39;6.20;99.90
16513;DHT22;8369;48.030;11.598;2023-04-15T06:39:05;6.20;99.90
16513;DHT22;8369;48.030;11.598;2023-04-15T06:41:31;6.20;99.90
16513;DHT22;8369;48.030;11.598;2023-04-15T06:43:57;6.20;99.90
16513;DHT22;8369;48.030;11.598;2023-04-15T06:46:23;6.20;99.90
16513;DHT22;8369;48.030;11.598;2023-04-15T06:48:49;6.20;99.90
16513;DHT22;8369;48.030;11.598;2023-04-15T06:51:15;6.30;99.90
16513;DHT22;8369;48.030;11.598;2023-04-15T06:53:41;6.30;99.90
16513;DHT22;8369;48.030;11.598;2023-04-15T06:56:09;6.30;99.90
16513;DHT22;8369;48.030;11.598;2023-04-15T06:58:36;6.30;99.90
16513;DHT22;8369;48.030;11.598;2023-04-15T07:01:01;6.40;99.90
16513;DHT22;8369;48.030;11.598;2023-04-15T07:03:28;6.40;99.90
16513;DHT22;8369;48.030;11.598;2023-04-15T07:05:54;6.40;99.90
16513;DHT22;8369;48.030;11.598;2023-04-15T07:08:20;6.50;99.90
16513;DHT22;8369;48.030;11.598;2023-04-15T07:10:46;6.50;99.90
16513;DHT22;8369;48.030;11.598;2023-04-15T07:13:12;6.60;99.90
16513;DHT22;8369;48.030;11.598;2023-04-15T07:15:38;6.60;99.90
16513;DHT22;8369;48.030;11.598;2023-04-15T07:18:04;6.70;99.90
16513;DHT22;8369;48.030;11.598;2023-04-15T07:20:30;6.70;99.90
16513;DHT22;8369;48.030;11.598;2023-04-15T07:22:56;6.80;99.90
16513;DHT22;8369;48.030;11.598;2023-04-15T07:25:22;6.80;99.90
16513;DHT22;8369;48.030;11.598;2023-04-15T07:27:51;6.80;99.90
16513;DHT22;8369;48.030;11.598;2023-04-15T07:30:17;6.90;99.90
16513;DHT22;8369;48.030;11.598;2023-04-15T07:32:43;6.90;99.90
16513;DHT22;8369;48.030;11.598;2023-04-15T07:35:09;7.00;99.90
16513;DHT22;8369;48.030;11.598;2023-04-15T07:37:38;7.10;99.90
16513;DHT22;8369;48.030;11.598;2023-04-15T07:40:04;7.10;99.90
16513;DHT22;8369;48.030;11.598;2023-04-15T07:42:33;7.20;99.90
16513;DHT22;8369;48.030;11.598;2023-04-15T07:44:59;7.30;99.90
16513;DHT22;8369;48.030;11.598;2023-04-15T07:47:25;7.40;99.90
16513;DHT22;8369;48.030;11.598;2023-04-15T07:49:52;7.50;99.90
16513;DHT22;8369;48.030;11.598;2023-04-15T07:52:18;7.60;99.90
16513;DHT22;8369;48.030;11.598;2023-04-15T07:54:44;7.60;99.90
16513;DHT22;8369;48.030;11.598;2023-04-15T07:57:10;7.70;99.90
16513;DHT22;8369;48.030;11.598;2023-04-15T07:59:37;7.90;99.90
16513;DHT22;8369;48.030;11.598;2023-04-15T08:02:02;7.90;99.90
16513;DHT22;8369;48.030;11.598;2023-04-15T08:04:29;7.90;99.90
16513;DHT22;8369;48.030;11.598;2023-04-15T08:06:55;8.00;99.90
16513;DHT22;8369;48.030;11.598;2023-04-15T08:09:22;8.10;99.90
16513;DHT22;8369;48.030;11.598;2023-04-15T08:11:48;8.10;99.90
16513;DHT22;8369;48.030;11.598;2023-04-15T08:14:15;8.20;99.90
16513;DHT22;8369;48.030;11.598;2023-04-15T08:16:41;8.30;99.90
16513;DHT22;8369;48.030;11.598;2023-04-15T08:19:07;8.30;99.90
16513;DHT22;8369;48.030;11.598;2023-04-15T08:21:33;8.30;99.90
16513;DHT22;8369;48.030;11.598;2023-04-15T08:23:59;8.40;99.90
16513;DHT22;8369;48.030;11.598;2023-04-15T08:26:25;8.40;99.90
16513;DHT22;8369;48.030;11.598;2023-04-15T08:28:51;8.50;99.90
16513;DHT22;8369;48.030;11.598;2023-04-15T08:31:17;8.60;99.90
16513;DHT22;8369;48.030;11.598;2023-04-15T08:33:43;8.60;99.90
16513;DHT22;8369;48.030;11.598;2023-04-15T08:36:10;8.80;99.90
16513;DHT22;8369;48.030;11.598;2023-04-15T08:38:36;8.80;99.90
16513;DHT22;8369;48.030;11.598;2023-04-15T08:41:11;8.90;99.90
16513;DHT22;8369;48.030;11.598;2023-04-15T08:43:48;9.00;99.90
16513;DHT22;8369;48.030;11.598;2023-04-15T08:46:16;9.10;99.90
16513;DHT22;8369;48.030;11.598;2023-04-15T08:48:43;9.20;99.90
16513;DHT22;8369;48.030;11.598;2023-04-15T08:51:09;9.20;99.90
16513;DHT22;8369;48.030;11.598;2023-04-15T08:53:36;9.20;99.90
16513;DHT22;8369;48.030;11.598;2023-04-15T08:56:06;9.20;99.90
16513;DHT22;8369;48.030;11.598;2023-04-15T08:58:35;9.20;99.90
16513;DHT22;8369;48.030;11.598;2023-04-15T09:01:01;9.20;99.90
16513;DHT22;8369;48.030;11.598;2023-04-15T09:03:28;9.10;99.90
16513;DHT22;8369;48.030;11.598;2023-04-15T09:05:55;9.00;99.90
16513;DHT22;8369;48.030;11.598;2023-04-15T09:08:21;9.00;99.90
16513;DHT22;8369;48.030;11.598;2023-04-15T09:10:47;8.90;99.90
16513;DHT22;8369;48.030;11.598;2023-04-15T09:13:13;8.90;99.90
16513;DHT22;8369;48.030;11.598;2023-04-15T09:15:39;8.90;99.90
16513;DHT22;8369;48.030;11.598;2023-04-15T09:18:05;8.90;99.90
16513;DHT22;8369;48.030;11.598;2023-04-15T09:20:39;8.90;99.90
16513;DHT22;8369;48.030;11.598;2023-04-15T09:23:12;8.90;99.90
16513;DHT22;8369;48.030;11.598;2023-04-15T09:25:40;8.90;99.90
16513;DHT22;8369;48.030;11.598;2023-04-15T09:28:07;9.00;99.90
16513;DHT22;8369;48.030;11.598;2023-04-15T09:30:33;9.10;99.90
16513;DHT22;8369;48.030;11.598;2023-04-15T09:33:01;9.10;99.90
16513;DHT22;8369;48.030;11.598;2023-04-15T09:35:27;9.10;99.90
16513;DHT22;8369;48.030;11.598;2023-04-15T09:38:04;9.30;99.90
16513;DHT22;8369;48.030;11.598;2023-04-15T09:42:57;9.40;99.90
16513;DHT22;8369;48.030;11.598;2023-04-15T09:45:23;9.40;99.90
16513;DHT22;8369;48.030;11.598;2023-04-15T09:47:50;9.50;99.90
16513;DHT22;8369;48.030;11.598;2023-04-15T09:50:17;9.60;99.90
16513;DHT22;8369;48.030;11.598;2023-04-15T09:52:44;9.60;99.90
16513;DHT22;8369;48.030;11.598;2023-04-15T09:55:10;9.60;99.90
16513;DHT22;8369;48.030;11.598;2023-04-15T09:57:38;9.70;99.90
16513;DHT22;8369;48.030;11.598;2023-04-15T10:00:07;9.60;99.90
16513;DHT22;8369;48.030;11.598;2023-04-15T10:02:36;9.70;99.90
16513;DHT22;8369;48.030;11.598;2023-04-15T10:05:04;9.70;99.90
16513;DHT22;8369;48.030;11.598;2023-04-15T10:07:31;9.60;99.90
16513;DHT22;8369;48.030;11.598;2023-04-15T10:09:59;9.70;99.90
16513;DHT22;8369;48.030;11.598;2023-04-15T10:12:27;9.60;99.90
16513;DHT22;8369;48.030;11.598;2023-04-15T10:15:00;9.50;99.90
16513;DHT22;8369;48.030;11.598;2023-04-15T10:17:29;9.50;99.90
16513;DHT22;8369;48.030;11.598;2023-04-15T10:20:04;9.40;99.90
16513;DHT22;8369;48.030;11.598;2023-04-15T10:22:31;9.40;99.90
16513;DHT22;8369;48.030;11.598;2023-04-15T10:24:58;9.50;99.90
16513;DHT22;8369;48.030;11.598;2023-04-15T10:27:26;9.40;99.90
16513;DHT22;8369;48.030;11.598;2023-04-15T10:29:52;9.40;99.90
16513;DHT22;8369;48.030;11.598;2023-04-15T10:32:19;9.40;99.90
16513;DHT22;8369;48.030;11.598;2023-04-15T10:34:47;9.50;99.90
16513;DHT22;8369;48.030;11.598;2023-04-15T10:37:20;9.40;99.90
16513;DHT22;8369;48.030;11.598;2023-04-15T10:39:46;9.40;99.90
16513;DHT22;8369;48.030;11.598;2023-04-15T10:42:15;9.50;99.90
16513;DHT22;8369;48.030;11.598;2023-04-15T10:44:44;9.50;99.90
16513;DHT22;8369;48.030;11.598;2023-04-15T10:47:15;9.60;99.90
16513;DHT22;8369;48.030;11.598;2023-04-15T10:52:27;9.50;99.90
16513;DHT22;8369;48.030;11.598;2023-04-15T10:55:13;9.60;99.90
16513;DHT22;8369;48.030;11.598;2023-04-15T10:57:43;9.60;99.90
16513;DHT22;8369;48.030;11.598;2023-04-15T11:00:15;9.70;99.90
16513;DHT22;8369;48.030;11.598;2023-04-15T11:03:04;9.70;99.90
16513;DHT22;8369;48.030;11.598;2023-04-15T11:08:07;9.70;99.90
16513;DHT22;8369;48.030;11.598;2023-04-15T11:13:01;9.70;99.70
16513;DHT22;8369;48.030;11.598;2023-04-15T11:15:41;9.70;99.90
16513;DHT22;8369;48.030;11.598;2023-04-15T11:18:15;9.80;99.90
16513;DHT22;8369;48.030;11.598;2023-04-15T11:20:43;9.90;99.90
16513;DHT22;8369;48.030;11.598;2023-04-15T11:23:14;9.90;99.90
16513;DHT22;8369;48.030;11.598;2023-04-15T11:25:40;10.00;99.90
16513;DHT22;8369;48.030;11.598;2023-04-15T11:28:07;10.10;99.90
16513;DHT22;8369;48.030;11.598;2023-04-15T11:30:35;10.10;99.90
16513;DHT22;8369;48.030;11.598;2023-04-15T11:33:06;10.10;99.90
16513;DHT22;8369;48.030;11.598;2023-04-15T11:35:33;10.10;99.90
16513;DHT22;8369;48.030;11.598;2023-04-15T11:38:03;10.20;99.90
16513;DHT22;8369;48.030;11.598;2023-04-15T11:40:30;10.20;99.90
16513;DHT22;8369;48.030;11.598;2023-04-15T11:43:15;10.10;99.60
16513;DHT22;8369;48.030;11.598;2023-04-15T11:45:57;10.00;99.50
16513;DHT22;8369;48.030;11.598;2023-04-15T11:48:27;9.90;99.90
16513;DHT22;8369;48.030;11.598;2023-04-15T11:50:59;9.90;99.90
16513;DHT22;8369;48.030;11.598;2023-04-15T11:53:48;9.90;99.90
16513;DHT22;8369;48.030;11.598;2023-04-15T11:56:22;9.80;99.90
16513;DHT22;8369;48.030;11.598;2023-04-15T11:58:54;9.70;99.90
16513;DHT22;8369;48.030;11.598;2023-04-15T12:01:39;9.70;99.90
16513;DHT22;8369;48.030;11.598;2023-04-15T12:04:16;9.70;99.90
16513;DHT22;8369;48.030;11.598;2023-04-15T12:06:45;9.70;99.90
16513;DHT22;8369;48.030;11.598;2023-04-15T12:09:17;9.70;99.90
16513;DHT22;8369;48.030;11.598;2023-04-15T12:11:46;9.60;99.90
16513;DHT22;8369;48.030;11.598;2023-04-15T12:16:49;9.50;99.90
16513;DHT22;8369;48.030;11.598;2023-04-15T12:19:36;9.50;99.90
16513;DHT22;8369;48.030;11.598;2023-04-15T12:22:08;9.40;99.90
16513;DHT22;8369;48.030;11.598;2023-04-15T12:24:36;9.30;99.90
16513;DHT22;8369;48.030;11.598;2023-04-15T12:27:08;9.30;99.90
16513;DHT22;8369;48.030;11.598;2023-04-15T12:29:40;9.30;99.90
16513;DHT22;8369;48.030;11.598;2023-04-15T12:32:11;9.20;99.90
16513;DHT22;8369;48.030;11.598;2023-04-15T12:34:57;9.10;99.90
16513;DHT22;8369;48.030;11.598;2023-04-15T12:37:24;9.10;99.90
16513;DHT22;8369;48.030;11.598;2023-04-15T12:39:50;9.20;99.90
16513;DHT22;8369;48.030;11.598;2023-04-15T12:42:17;9.10;99.90
16513;DHT22;8369;48.030;11.598;2023-04-15T12:44:43;9.00;99.90
16513;DHT22;8369;48.030;11.598;2023-04-15T12:47:09;9.00;99.90
16513;DHT22;8369;48.030;11.598;2023-04-15T12:49:36;8.90;99.90
16513;DHT22;8369;48.030;11.598;2023-04-15T12:52:04;8.90;99.90
16513;DHT22;8369;48.030;11.598;2023-04-15T12:54:30;8.80;99.90
16513;DHT22;8369;48.030;11.598;2023-04-15T12:56:57;8.80;99.90
16513;DHT22;8369;48.030;11.598;2023-04-15T12:59:23;8.70;99.90
16513;DHT22;8369;48.030;11.598;2023-04-15T13:01:50;8.80;99.90
16513;DHT22;8369;48.030;11.598;2023-04-15T13:04:16;8.80;99.90
16513;DHT22;8369;48.030;11.598;2023-04-15T13:06:42;8.80;99.90
16513;DHT22;8369;48.030;11.598;2023-04-15T13:09:08;8.70;99.90
16513;DHT22;8369;48.030;11.598;2023-04-15T13:11:34;8.80;99.90
16513;DHT22;8369;48.030;11.598;2023-04-15T13:14:04;8.80;99.90
16513;DHT22;8369;48.030;11.598;2023-04-15T13:16:31;8.80;99.90
16513;DHT22;8369;48.030;11.598;2023-04-15T13:18:58;8.80;99.90
16513;DHT22;8369;48.030;11.598;2023-04-15T13:21:24;8.90;99.90
16513;DHT22;8369;48.030;11.598;2023-04-15T13:23:51;8.90;99.90
16513;DHT22;8369;48.030;11.598;2023-04-15T13:26:18;8.90;99.90
16513;DHT22;8369;48.030;11.598;2023-04-15T13:28:44;8.90;99.90
16513;DHT22;8369;48.030;11.598;2023-04-15T13:31:10;8.90;99.90
16513;DHT22;8369;48.030;11.598;2023-04-15T13:33:36;9.00;99.90
16513;DHT22;8369;48.030;11.598;2023-04-15T13:36:03;9.00;99.90
16513;DHT22;8369;48.030;11.598;2023-04-15T13:38:30;9.00;99.90
16513;DHT22;8369;48.030;11.598;2023-04-15T13:40:55;9.00;99.90
16513;DHT22;8369;48.030;11.598;2023-04-15T13:43:21;9.00;99.90
16513;DHT22;8369;48.030;11.598;2023-04-15T13:45:49;9.00;99.90
16513;DHT22;8369;48.030;11.598;2023-04-15T13:48:16;9.00;99.90
16513;DHT22;8369;48.030;11.598;2023-04-15T13:50:42;9.00;99.90
16513;DHT22;8369;48.030;11.598;2023-04-15T13:53:11;9.00;99.90
16513;DHT22;8369;48.030;11.598;2023-04-15T13:55:37;9.00;99.90
16513;DHT22;8369;48.030;11.598;2023-04-15T13:58:07;9.00;99.90
16513;DHT22;8369;48.030;11.598;2023-04-15T14:00:33;9.00;99.90
16513;DHT22;8369;48.030;11.598;2023-04-15T14:02:59;9.00;99.90
16513;DHT22;8369;48.030;11.598;2023-04-15T14:05:25;9.00;99.90
16513;DHT22;8369;48.030;11.598;2023-04-15T14:07:51;8.90;99.90
16513;DHT22;8369;48.030;11.598;2023-04-15T14:10:17;8.90;99.90
16513;DHT22;8369;48.030;11.598;2023-04-15T14:12:43;8.90;99.90
16513;DHT22;8369;48.030;11.598;2023-04-15T14:15:10;8.90;99.90
16513;DHT22;8369;48.030;11.598;2023-04-15T14:17:36;8.80;99.90
16513;DHT22;8369;48.030;11.598;2023-04-15T14:20:05;8.80;99.90
16513;DHT22;8369;48.030;11.598;2023-04-15T14:22:31;8.80;99.90
16513;DHT22;8369;48.030;11.598;2023-04-15T14:24:57;8.80;99.90
16513;DHT22;8369;48.030;11.598;2023-04-15T14:27:23;8.80;99.90
16513;DHT22;8369;48.030;11.598;2023-04-15T14:29:50;9.00;99.90
16513;DHT22;8369;48.030;11.598;2023-04-15T14:32:15;9.00;99.90
16513;DHT22;8369;48.030;11.598;2023-04-15T14:34:41;8.90;99.90
16513;DHT22;8369;48.030;11.598;2023-04-15T14:37:07;8.80;99.90
16513;DHT22;8369;48.030;11.598;2023-04-15T14:39:33;8.80;99.90
16513;DHT22;8369;48.030;11.598;2023-04-15T14:42:01;8.80;99.90
16513;DHT22;8369;48.030;11.598;2023-04-15T14:44:27;8.80;99.90
16513;DHT22;8369;48.030;11.598;2023-04-15T14:46:53;8.80;99.90
16513;DHT22;8369;48.030;11.598;2023-04-15T14:49:20;8.80;99.90
16513;DHT22;8369;48.030;11.598;2023-04-15T14:51:46;8.80;99.90
16513;DHT22;8369;48.030;11.598;2023-04-15T14:54:12;8.90;99.90
16513;DHT22;8369;48.030;11.598;2023-04-15T14:56:39;8.90;99.90
16513;DHT22;8369;48.030;11.598;2023-04-15T14:59:05;9.00;99.90
16513;DHT22;8369;48.030;11.598;2023-04-15T15:01:32;9.00;99.90
16513;DHT22;8369;48.030;11.598;2023-04-15T15:03:58;9.00;99.90
16513;DHT22;8369;48.030;11.598;2023-04-15T15:06:24;9.10;99.90
16513;DHT22;8369;48.030;11.598;2023-04-15T15:08:50;9.10;99.90
16513;DHT22;8369;48.030;11.598;2023-04-15T15:11:16;9.10;99.90
16513;DHT22;8369;48.030;11.598;2023-04-15T15:13:42;9.10;99.90
16513;DHT22;8369;48.030;11.598;2023-04-15T15:16:08;9.10;99.90
16513;DHT22;8369;48.030;11.598;2023-04-15T15:18:35;9.10;99.90
16513;DHT22;8369;48.030;11.598;2023-04-15T15:21:00;9.00;99.90
16513;DHT22;8369;48.030;11.598;2023-04-15T15:23:26;9.00;99.90
16513;DHT22;8369;48.030;11.598;2023-04-15T15:25:52;9.00;99.90
16513;DHT22;8369;48.030;11.598;2023-04-15T15:28:22;9.00;99.90
16513;DHT22;8369;48.030;11.598;2023-04-15T15:30:53;8.90;99.90
16513;DHT22;8369;48.030;11.598;2023-04-15T15:33:30;8.90;99.90
16513;DHT22;8369;48.030;11.598;2023-04-15T15:36:17;8.80;99.90
16513;DHT22;8369;48.030;11.598;2023-04-15T15:38:46;8.80;99.90
16513;DHT22;8369;48.030;11.598;2023-04-15T15:41:12;8.80;99.90
16513;DHT22;8369;48.030;11.598;2023-04-15T15:43:42;8.80;99.90
16513;DHT22;8369;48.030;11.598;2023-04-15T15:46:12;8.80;99.90
16513;DHT22;8369;48.030;11.598;2023-04-15T15:48:39;8.70;99.90
16513;DHT22;8369;48.030;11.598;2023-04-15T15:51:07;8.70;99.90
16513;DHT22;8369;48.030;11.598;2023-04-15T15:53:37;8.60;99.90
16513;DHT22;8369;48.030;11.598;2023-04-15T15:56:05;8.50;99.90
16513;DHT22;8369;48.030;11.598;2023-04-15T15:58:33;8.50;99.90